sensor_id;sensor_type;location;lat;lon;timestamp;P1;durP1;ratioP1;P2;durP2;ratioP2
51368;SDS011;37459;51.416;5.502;2023-05-06T00:01:29;1.27;;;0.80;;
51368;SDS011;37459;51.416;5.502;2023-05-06T00:03:56;2.35;;;0.93;;
51368;SDS011;37459;51.416;5.502;2023-05-06T00:06:22;1.60;;;1.10;;
51368;SDS011;37459;51.416;5.502;2023-05-06T00:08:49;3.03;;;1.08;;
51368;SDS011;37459;51.416;5.502;2023-05-06T00:11:15;1.60;;;0.90;;
51368;SDS011;37459;51.416;5.502;2023-05-06T00:13:42;2.13;;;1.05;;
51368;SDS011;37459;51.416;5.502;2023-05-06T00:16:10;2.20;;;1.05;;
51368;SDS011;37459;51.416;5.502;2023-05-06T00:18:36;1.50;;;0.90;;
51368;SDS011;37459;51.416;5.502;2023-05-06T00:21:03;1.95;;;1.15;;
51368;SDS011;37459;51.416;5.502;2023-05-06T00:23:29;1.90;;;1.20;;
51368;SDS011;37459;51.416;5.502;2023-05-06T00:25:56;2.05;;;1.10;;
51368;SDS011;37459;51.416;5.502;2023-05-06T00:28:23;1.70;;;1.10;;
51368;SDS011;37459;51.416;5.502;2023-05-06T00:30:49;2.10;;;1.23;;
51368;SDS011;37459;51.416;5.502;2023-05-06T00:33:17;1.67;;;1.10;;
51368;SDS011;37459;51.416;5.502;2023-05-06T00:35:43;2.10;;;1.10;;
51368;SDS011;37459;51.416;5.502;2023-05-06T00:38:10;2.08;;;1.10;;
51368;SDS011;37459;51.416;5.502;2023-05-06T00:40:39;2.00;;;1.27;;
51368;SDS011;37459;51.416;5.502;2023-05-06T00:43:06;1.60;;;1.00;;
51368;SDS011;37459;51.416;5.502;2023-05-06T00:45:32;1.83;;;1.13;;
51368;SDS011;37459;51.416;5.502;2023-05-06T00:48:00;2.00;;;1.10;;
51368;SDS011;37459;51.416;5.502;2023-05-06T00:50:29;1.85;;;1.10;;
51368;SDS011;37459;51.416;5.502;2023-05-06T00:52:57;2.75;;;1.10;;
51368;SDS011;37459;51.416;5.502;2023-05-06T00:55:24;2.08;;;1.20;;
51368;SDS011;37459;51.416;5.502;2023-05-06T00:57:52;1.52;;;1.02;;
51368;SDS011;37459;51.416;5.502;2023-05-06T01:00:19;2.13;;;1.10;;
51368;SDS011;37459;51.416;5.502;2023-05-06T01:02:46;2.00;;;1.02;;
51368;SDS011;37459;51.416;5.502;2023-05-06T01:05:13;1.90;;;1.20;;
51368;SDS011;37459;51.416;5.502;2023-05-06T01:07:43;1.88;;;1.10;;
51368;SDS011;37459;51.416;5.502;2023-05-06T01:10:16;2.05;;;1.15;;
51368;SDS011;37459;51.416;5.502;2023-05-06T01:12:52;1.98;;;1.13;;
51368;SDS011;37459;51.416;5.502;2023-05-06T01:15:27;1.92;;;1.20;;
51368;SDS011;37459;51.416;5.502;2023-05-06T01:17:59;2.55;;;1.75;;
51368;SDS011;37459;51.416;5.502;2023-05-06T01:20:30;2.67;;;1.27;;
51368;SDS011;37459;51.416;5.502;2023-05-06T01:22:59;2.20;;;1.17;;
51368;SDS011;37459;51.416;5.502;2023-05-06T01:25:28;2.00;;;1.13;;
51368;SDS011;37459;51.416;5.502;2023-05-06T01:27:56;2.85;;;1.23;;
51368;SDS011;37459;51.416;5.502;2023-05-06T01:30:22;2.47;;;1.30;;
51368;SDS011;37459;51.416;5.502;2023-05-06T01:32:57;2.00;;;1.27;;
51368;SDS011;37459;51.416;5.502;2023-05-06T01:35:31;1.98;;;1.27;;
51368;SDS011;37459;51.416;5.502;2023-05-06T01:40:38;2.42;;;1.27;;
51368;SDS011;37459;51.416;5.502;2023-05-06T01:43:07;1.75;;;1.10;;
51368;SDS011;37459;51.416;5.502;2023-05-06T01:45:37;2.03;;;1.15;;
51368;SDS011;37459;51.416;5.502;2023-05-06T01:48:05;2.20;;;1.38;;
51368;SDS011;37459;51.416;5.502;2023-05-06T01:50:32;3.70;;;1.20;;
51368;SDS011;37459;51.416;5.502;2023-05-06T01:53:00;2.03;;;1.30;;
51368;SDS011;37459;51.416;5.502;2023-05-06T01:55:28;2.08;;;1.20;;
51368;SDS011;37459;51.416;5.502;2023-05-06T01:57:57;2.00;;;1.27;;
51368;SDS011;37459;51.416;5.502;2023-05-06T02:00:24;2.30;;;1.13;;
51368;SDS011;37459;51.416;5.502;2023-05-06T02:02:50;2.47;;;1.33;;
51368;SDS011;37459;51.416;5.502;2023-05-06T02:05:17;1.95;;;1.13;;
51368;SDS011;37459;51.416;5.502;2023-05-06T02:07:44;2.17;;;1.20;;
51368;SDS011;37459;51.416;5.502;2023-05-06T02:10:10;2.22;;;1.13;;
51368;SDS011;37459;51.416;5.502;2023-05-06T02:12:37;1.90;;;1.00;;
51368;SDS011;37459;51.416;5.502;2023-05-06T02:15:05;2.13;;;1.20;;
51368;SDS011;37459;51.416;5.502;2023-05-06T02:17:33;2.42;;;1.25;;
51368;SDS011;37459;51.416;5.502;2023-05-06T02:20:00;3.05;;;1.35;;
51368;SDS011;37459;51.416;5.502;2023-05-06T02:22:26;2.20;;;1.10;;
51368;SDS011;37459;51.416;5.502;2023-05-06T02:24:53;1.83;;;1.20;;
51368;SDS011;37459;51.416;5.502;2023-05-06T02:27:19;1.90;;;1.20;;
51368;SDS011;37459;51.416;5.502;2023-05-06T02:29:46;2.42;;;1.40;;
51368;SDS011;37459;51.416;5.502;2023-05-06T02:32:14;2.35;;;1.23;;
51368;SDS011;37459;51.416;5.502;2023-05-06T02:34:41;2.03;;;1.17;;
51368;SDS011;37459;51.416;5.502;2023-05-06T02:37:08;2.10;;;1.15;;
51368;SDS011;37459;51.416;5.502;2023-05-06T02:39:34;1.90;;;1.20;;
51368;SDS011;37459;51.416;5.502;2023-05-06T02:42:01;2.67;;;1.40;;
51368;SDS011;37459;51.416;5.502;2023-05-06T02:44:27;2.28;;;1.20;;
51368;SDS011;37459;51.416;5.502;2023-05-06T02:46:54;1.73;;;1.08;;
51368;SDS011;37459;51.416;5.502;2023-05-06T02:49:22;2.20;;;1.20;;
51368;SDS011;37459;51.416;5.502;2023-05-06T02:51:49;2.03;;;1.13;;
51368;SDS011;37459;51.416;5.502;2023-05-06T02:54:15;2.33;;;1.30;;
51368;SDS011;37459;51.416;5.502;2023-05-06T02:56:42;2.00;;;1.10;;
51368;SDS011;37459;51.416;5.502;2023-05-06T02:59:10;1.67;;;1.15;;
51368;SDS011;37459;51.416;5.502;2023-05-06T03:01:36;2.00;;;1.33;;
51368;SDS011;37459;51.416;5.502;2023-05-06T03:04:03;2.13;;;1.20;;
51368;SDS011;37459;51.416;5.502;2023-05-06T03:06:31;1.73;;;1.10;;
51368;SDS011;37459;51.416;5.502;2023-05-06T03:08:58;1.70;;;1.20;;
51368;SDS011;37459;51.416;5.502;2023-05-06T03:11:24;2.33;;;1.20;;
51368;SDS011;37459;51.416;5.502;2023-05-06T03:13:51;2.00;;;1.17;;
51368;SDS011;37459;51.416;5.502;2023-05-06T03:16:17;2.25;;;1.20;;
51368;SDS011;37459;51.416;5.502;2023-05-06T03:18:44;1.92;;;1.30;;
51368;SDS011;37459;51.416;5.502;2023-05-06T03:21:10;1.88;;;1.15;;
51368;SDS011;37459;51.416;5.502;2023-05-06T03:23:38;1.67;;;1.10;;
51368;SDS011;37459;51.416;5.502;2023-05-06T03:26:05;1.75;;;1.10;;
51368;SDS011;37459;51.416;5.502;2023-05-06T03:28:32;1.88;;;1.00;;
51368;SDS011;37459;51.416;5.502;2023-05-06T03:30:58;1.77;;;1.10;;
51368;SDS011;37459;51.416;5.502;2023-05-06T03:33:25;1.85;;;1.00;;
51368;SDS011;37459;51.416;5.502;2023-05-06T03:35:51;1.92;;;1.20;;
51368;SDS011;37459;51.416;5.502;2023-05-06T03:38:18;1.63;;;1.00;;
51368;SDS011;37459;51.416;5.502;2023-05-06T03:40:46;2.00;;;1.20;;
51368;SDS011;37459;51.416;5.502;2023-05-06T03:43:12;2.33;;;1.30;;
51368;SDS011;37459;51.416;5.502;2023-05-06T03:45:39;1.88;;;1.10;;
51368;SDS011;37459;51.416;5.502;2023-05-06T03:48:05;2.10;;;1.20;;
51368;SDS011;37459;51.416;5.502;2023-05-06T03:50:32;2.00;;;1.20;;
51368;SDS011;37459;51.416;5.502;2023-05-06T03:52:58;1.75;;;1.10;;
51368;SDS011;37459;51.416;5.502;2023-05-06T03:55:25;1.92;;;1.13;;
51368;SDS011;37459;51.416;5.502;2023-05-06T03:57:53;1.75;;;1.15;;
51368;SDS011;37459;51.416;5.502;2023-05-06T04:00:19;1.77;;;1.10;;
51368;SDS011;37459;51.416;5.502;2023-05-06T04:02:46;2.10;;;1.27;;
51368;SDS011;37459;51.416;5.502;2023-05-06T04:05:13;2.10;;;1.20;;
51368;SDS011;37459;51.416;5.502;2023-05-06T04:07:40;1.55;;;0.95;;
51368;SDS011;37459;51.416;5.502;2023-05-06T04:10:07;2.00;;;1.20;;
51368;SDS011;37459;51.416;5.502;2023-05-06T04:12:34;1.70;;;0.95;;
51368;SDS011;37459;51.416;5.502;2023-05-06T04:15:02;1.90;;;1.05;;
51368;SDS011;37459;51.416;5.502;2023-05-06T04:17:29;1.88;;;1.13;;
51368;SDS011;37459;51.416;5.502;2023-05-06T04:19:55;3.00;;;1.10;;
51368;SDS011;37459;51.416;5.502;2023-05-06T04:22:22;3.25;;;1.10;;
51368;SDS011;37459;51.416;5.502;2023-05-06T04:24:48;1.98;;;1.10;;
51368;SDS011;37459;51.416;5.502;2023-05-06T04:27:15;2.20;;;1.20;;
51368;SDS011;37459;51.416;5.502;2023-05-06T04:29:42;1.70;;;1.00;;
51368;SDS011;37459;51.416;5.502;2023-05-06T04:32:10;1.95;;;1.10;;
51368;SDS011;37459;51.416;5.502;2023-05-06T04:34:36;1.92;;;1.23;;
51368;SDS011;37459;51.416;5.502;2023-05-06T04:37:03;2.08;;;1.02;;
51368;SDS011;37459;51.416;5.502;2023-05-06T04:39:31;1.77;;;1.10;;
51368;SDS011;37459;51.416;5.502;2023-05-06T04:41:58;2.42;;;1.10;;
51368;SDS011;37459;51.416;5.502;2023-05-06T04:44:24;2.30;;;1.20;;
51368;SDS011;37459;51.416;5.502;2023-05-06T04:46:51;2.03;;;1.17;;
51368;SDS011;37459;51.416;5.502;2023-05-06T04:49:19;1.80;;;1.00;;
51368;SDS011;37459;51.416;5.502;2023-05-06T04:51:45;1.90;;;1.10;;
51368;SDS011;37459;51.416;5.502;2023-05-06T04:54:12;1.77;;;1.10;;
51368;SDS011;37459;51.416;5.502;2023-05-06T04:56:38;2.40;;;1.10;;
51368;SDS011;37459;51.416;5.502;2023-05-06T04:59:05;2.10;;;1.08;;
51368;SDS011;37459;51.416;5.502;2023-05-06T05:01:31;2.17;;;1.05;;
51368;SDS011;37459;51.416;5.502;2023-05-06T05:03:58;1.70;;;1.05;;
51368;SDS011;37459;51.416;5.502;2023-05-06T05:06:26;2.17;;;1.10;;
51368;SDS011;37459;51.416;5.502;2023-05-06T05:08:52;1.95;;;1.10;;
51368;SDS011;37459;51.416;5.502;2023-05-06T05:11:19;3.17;;;1.10;;
51368;SDS011;37459;51.416;5.502;2023-05-06T05:13:45;2.00;;;1.00;;
51368;SDS011;37459;51.416;5.502;2023-05-06T05:16:12;2.35;;;1.00;;
51368;SDS011;37459;51.416;5.502;2023-05-06T05:18:38;1.42;;;0.90;;
51368;SDS011;37459;51.416;5.502;2023-05-06T05:21:05;1.83;;;0.90;;
51368;SDS011;37459;51.416;5.502;2023-05-06T05:23:32;1.75;;;0.85;;
51368;SDS011;37459;51.416;5.502;2023-05-06T05:25:59;1.60;;;0.90;;
51368;SDS011;37459;51.416;5.502;2023-05-06T05:28:26;2.20;;;0.90;;
51368;SDS011;37459;51.416;5.502;2023-05-06T05:30:52;1.90;;;1.00;;
51368;SDS011;37459;51.416;5.502;2023-05-06T05:33:19;1.23;;;0.75;;
51368;SDS011;37459;51.416;5.502;2023-05-06T05:35:46;1.35;;;0.80;;
51368;SDS011;37459;51.416;5.502;2023-05-06T05:38:12;1.52;;;0.90;;
51368;SDS011;37459;51.416;5.502;2023-05-06T05:40:40;2.58;;;1.00;;
51368;SDS011;37459;51.416;5.502;2023-05-06T05:43:07;1.30;;;0.80;;
51368;SDS011;37459;51.416;5.502;2023-05-06T05:45:34;1.58;;;0.80;;
51368;SDS011;37459;51.416;5.502;2023-05-06T05:48:00;1.40;;;0.82;;
51368;SDS011;37459;51.416;5.502;2023-05-06T05:50:27;1.60;;;0.73;;
51368;SDS011;37459;51.416;5.502;2023-05-06T05:52:53;1.20;;;0.73;;
51368;SDS011;37459;51.416;5.502;2023-05-06T05:55:20;1.65;;;0.85;;
51368;SDS011;37459;51.416;5.502;2023-05-06T05:57:48;1.60;;;0.90;;
51368;SDS011;37459;51.416;5.502;2023-05-06T06:00:15;2.08;;;0.80;;
51368;SDS011;37459;51.416;5.502;2023-05-06T06:02:42;2.15;;;1.00;;
51368;SDS011;37459;51.416;5.502;2023-05-06T06:05:08;1.75;;;0.90;;
51368;SDS011;37459;51.416;5.502;2023-05-06T06:07:35;1.30;;;0.80;;
51368;SDS011;37459;51.416;5.502;2023-05-06T06:10:02;1.85;;;0.80;;
51368;SDS011;37459;51.416;5.502;2023-05-06T06:12:28;1.20;;;0.70;;
51368;SDS011;37459;51.416;5.502;2023-05-06T06:14:56;1.17;;;0.70;;
51368;SDS011;37459;51.416;5.502;2023-05-06T06:17:23;1.17;;;0.70;;
51368;SDS011;37459;51.416;5.502;2023-05-06T06:19:49;1.63;;;0.70;;
51368;SDS011;37459;51.416;5.502;2023-05-06T06:22:21;1.90;;;0.80;;
51368;SDS011;37459;51.416;5.502;2023-05-06T06:24:47;2.15;;;0.60;;
51368;SDS011;37459;51.416;5.502;2023-05-06T06:27:14;1.88;;;0.70;;
51368;SDS011;37459;51.416;5.502;2023-05-06T06:29:40;1.20;;;0.70;;
51368;SDS011;37459;51.416;5.502;2023-05-06T06:32:08;1.33;;;0.73;;
51368;SDS011;37459;51.416;5.502;2023-05-06T06:34:35;0.98;;;0.60;;
51368;SDS011;37459;51.416;5.502;2023-05-06T06:37:01;1.50;;;0.90;;
51368;SDS011;37459;51.416;5.502;2023-05-06T06:39:28;1.40;;;0.70;;
51368;SDS011;37459;51.416;5.502;2023-05-06T06:41:55;1.55;;;0.60;;
51368;SDS011;37459;51.416;5.502;2023-05-06T06:44:22;2.45;;;0.70;;
51368;SDS011;37459;51.416;5.502;2023-05-06T06:46:48;1.23;;;0.70;;
51368;SDS011;37459;51.416;5.502;2023-05-06T06:49:16;1.20;;;0.70;;
51368;SDS011;37459;51.416;5.502;2023-05-06T06:51:43;1.23;;;0.70;;
51368;SDS011;37459;51.416;5.502;2023-05-06T06:54:09;1.30;;;0.70;;
51368;SDS011;37459;51.416;5.502;2023-05-06T06:56:36;1.17;;;0.60;;
51368;SDS011;37459;51.416;5.502;2023-05-06T06:59:02;1.67;;;0.52;;
51368;SDS011;37459;51.416;5.502;2023-05-06T07:01:29;1.70;;;0.80;;
51368;SDS011;37459;51.416;5.502;2023-05-06T07:03:55;2.28;;;0.60;;
51368;SDS011;37459;51.416;5.502;2023-05-06T07:06:23;2.50;;;0.70;;
51368;SDS011;37459;51.416;5.502;2023-05-06T07:08:50;3.30;;;1.08;;
51368;SDS011;37459;51.416;5.502;2023-05-06T07:11:16;4.45;;;1.00;;
51368;SDS011;37459;51.416;5.502;2023-05-06T07:13:43;4.13;;;1.45;;
51368;SDS011;37459;51.416;5.502;2023-05-06T07:16:09;4.00;;;1.20;;
51368;SDS011;37459;51.416;5.502;2023-05-06T07:18:36;3.20;;;1.50;;
51368;SDS011;37459;51.416;5.502;2023-05-06T07:21:03;3.30;;;1.83;;
51368;SDS011;37459;51.416;5.502;2023-05-06T07:23:31;3.03;;;1.60;;
51368;SDS011;37459;51.416;5.502;2023-05-06T07:25:57;3.72;;;1.95;;
51368;SDS011;37459;51.416;5.502;2023-05-06T07:28:24;3.25;;;1.40;;
51368;SDS011;37459;51.416;5.502;2023-05-06T07:30:51;4.90;;;1.70;;
51368;SDS011;37459;51.416;5.502;2023-05-06T07:33:18;4.00;;;1.40;;
51368;SDS011;37459;51.416;5.502;2023-05-06T07:35:45;2.50;;;1.63;;
51368;SDS011;37459;51.416;5.502;2023-05-06T07:38:11;3.65;;;1.45;;
51368;SDS011;37459;51.416;5.502;2023-05-06T07:40:39;4.75;;;1.60;;
51368;SDS011;37459;51.416;5.502;2023-05-06T07:43:06;3.75;;;1.95;;
51368;SDS011;37459;51.416;5.502;2023-05-06T07:45:33;5.22;;;2.20;;
51368;SDS011;37459;51.416;5.502;2023-05-06T07:48:00;4.75;;;2.15;;
51368;SDS011;37459;51.416;5.502;2023-05-06T07:50:26;3.05;;;2.00;;
51368;SDS011;37459;51.416;5.502;2023-05-06T07:52:53;5.70;;;2.30;;
51368;SDS011;37459;51.416;5.502;2023-05-06T07:55:19;4.00;;;1.83;;
51368;SDS011;37459;51.416;5.502;2023-05-06T07:57:47;3.75;;;2.05;;
51368;SDS011;37459;51.416;5.502;2023-05-06T08:00:14;3.95;;;1.85;;
51368;SDS011;37459;51.416;5.502;2023-05-06T08:02:42;3.03;;;1.92;;
51368;SDS011;37459;51.416;5.502;2023-05-06T08:05:10;5.85;;;2.30;;
51368;SDS011;37459;51.416;5.502;2023-05-06T08:07:37;5.43;;;2.10;;
51368;SDS011;37459;51.416;5.502;2023-05-06T08:10:05;5.43;;;2.60;;
51368;SDS011;37459;51.416;5.502;2023-05-06T08:12:33;4.20;;;2.58;;
51368;SDS011;37459;51.416;5.502;2023-05-06T08:15:02;4.65;;;2.60;;
51368;SDS011;37459;51.416;5.502;2023-05-06T08:17:29;3.90;;;2.33;;
51368;SDS011;37459;51.416;5.502;2023-05-06T08:19:56;4.30;;;2.08;;
51368;SDS011;37459;51.416;5.502;2023-05-06T08:22:22;3.58;;;2.15;;
51368;SDS011;37459;51.416;5.502;2023-05-06T08:24:49;15.75;;;2.70;;
51368;SDS011;37459;51.416;5.502;2023-05-06T08:27:16;12.48;;;2.75;;
51368;SDS011;37459;51.416;5.502;2023-05-06T08:29:42;8.10;;;3.00;;
51368;SDS011;37459;51.416;5.502;2023-05-06T08:32:10;9.07;;;2.50;;
51368;SDS011;37459;51.416;5.502;2023-05-06T08:34:37;8.50;;;2.67;;
51368;SDS011;37459;51.416;5.502;2023-05-06T08:37:04;7.22;;;2.13;;
51368;SDS011;37459;51.416;5.502;2023-05-06T08:39:30;9.02;;;2.15;;
51368;SDS011;37459;51.416;5.502;2023-05-06T08:41:57;8.45;;;2.40;;
51368;SDS011;37459;51.416;5.502;2023-05-06T08:44:26;6.70;;;2.30;;
51368;SDS011;37459;51.416;5.502;2023-05-06T08:46:52;7.63;;;2.30;;
51368;SDS011;37459;51.416;5.502;2023-05-06T08:49:20;7.88;;;2.40;;
51368;SDS011;37459;51.416;5.502;2023-05-06T08:51:48;4.53;;;1.90;;
51368;SDS011;37459;51.416;5.502;2023-05-06T08:54:15;10.23;;;2.50;;
51368;SDS011;37459;51.416;5.502;2023-05-06T08:56:44;9.40;;;1.85;;
51368;SDS011;37459;51.416;5.502;2023-05-06T08:59:12;7.13;;;2.20;;
51368;SDS011;37459;51.416;5.502;2023-05-06T09:01:39;9.23;;;2.13;;
51368;SDS011;37459;51.416;5.502;2023-05-06T09:04:06;4.68;;;1.45;;
51368;SDS011;37459;51.416;5.502;2023-05-06T09:06:34;4.28;;;1.73;;
51368;SDS011;37459;51.416;5.502;2023-05-06T09:09:01;6.15;;;1.55;;
51368;SDS011;37459;51.416;5.502;2023-05-06T09:11:28;5.97;;;1.63;;
51368;SDS011;37459;51.416;5.502;2023-05-06T09:16:44;4.05;;;1.52;;
51368;SDS011;37459;51.416;5.502;2023-05-06T09:19:13;4.55;;;1.70;;
51368;SDS011;37459;51.416;5.502;2023-05-06T09:21:42;6.03;;;1.90;;
51368;SDS011;37459;51.416;5.502;2023-05-06T09:24:11;5.15;;;1.65;;
51368;SDS011;37459;51.416;5.502;2023-05-06T09:26:39;4.47;;;1.50;;
51368;SDS011;37459;51.416;5.502;2023-05-06T09:29:06;5.03;;;1.70;;
51368;SDS011;37459;51.416;5.502;2023-05-06T09:31:38;4.25;;;1.70;;
51368;SDS011;37459;51.416;5.502;2023-05-06T09:34:06;6.57;;;1.75;;
51368;SDS011;37459;51.416;5.502;2023-05-06T09:36:32;5.25;;;1.65;;
51368;SDS011;37459;51.416;5.502;2023-05-06T09:39:00;3.33;;;1.55;;
51368;SDS011;37459;51.416;5.502;2023-05-06T09:41:27;7.03;;;1.95;;
51368;SDS011;37459;51.416;5.502;2023-05-06T09:43:54;6.88;;;1.83;;
51368;SDS011;37459;51.416;5.502;2023-05-06T09:46:23;7.10;;;1.88;;
51368;SDS011;37459;51.416;5.502;2023-05-06T09:48:51;9.32;;;2.58;;
51368;SDS011;37459;51.416;5.502;2023-05-06T09:51:19;6.40;;;2.42;;
51368;SDS011;37459;51.416;5.502;2023-05-06T09:53:46;6.80;;;2.53;;
51368;SDS011;37459;51.416;5.502;2023-05-06T09:56:15;7.35;;;2.97;;
51368;SDS011;37459;51.416;5.502;2023-05-06T09:58:42;5.53;;;2.17;;
51368;SDS011;37459;51.416;5.502;2023-05-06T10:01:10;6.90;;;2.15;;
51368;SDS011;37459;51.416;5.502;2023-05-06T10:03:38;7.85;;;2.20;;
51368;SDS011;37459;51.416;5.502;2023-05-06T10:06:06;9.30;;;2.33;;
51368;SDS011;37459;51.416;5.502;2023-05-06T10:08:35;4.30;;;1.70;;
51368;SDS011;37459;51.416;5.502;2023-05-06T10:11:02;5.20;;;1.88;;
51368;SDS011;37459;51.416;5.502;2023-05-06T10:13:31;3.78;;;1.90;;
51368;SDS011;37459;51.416;5.502;2023-05-06T10:16:00;5.60;;;2.17;;
51368;SDS011;37459;51.416;5.502;2023-05-06T10:18:27;5.50;;;2.10;;
51368;SDS011;37459;51.416;5.502;2023-05-06T10:20:55;3.90;;;1.83;;
51368;SDS011;37459;51.416;5.502;2023-05-06T10:23:29;8.80;;;2.28;;
51368;SDS011;37459;51.416;5.502;2023-05-06T10:26:04;7.63;;;1.90;;
51368;SDS011;37459;51.416;5.502;2023-05-06T10:28:34;4.32;;;1.90;;
51368;SDS011;37459;51.416;5.502;2023-05-06T10:31:06;5.78;;;1.90;;
51368;SDS011;37459;51.416;5.502;2023-05-06T10:33:36;5.13;;;1.60;;
51368;SDS011;37459;51.416;5.502;2023-05-06T10:36:06;4.70;;;1.60;;
51368;SDS011;37459;51.416;5.502;2023-05-06T10:38:39;18.65;;;2.75;;
51368;SDS011;37459;51.416;5.502;2023-05-06T10:41:07;19.00;;;3.35;;
51368;SDS011;37459;51.416;5.502;2023-05-06T10:43:39;16.08;;;2.50;;
51368;SDS011;37459;51.416;5.502;2023-05-06T10:46:07;11.93;;;2.20;;
51368;SDS011;37459;51.416;5.502;2023-05-06T10:48:35;11.05;;;1.90;;
51368;SDS011;37459;51.416;5.502;2023-05-06T10:53:56;6.03;;;1.92;;
51368;SDS011;37459;51.416;5.502;2023-05-06T10:56:23;7.82;;;1.83;;
51368;SDS011;37459;51.416;5.502;2023-05-06T10:58:51;5.90;;;1.70;;
51368;SDS011;37459;51.416;5.502;2023-05-06T11:01:22;4.53;;;1.50;;
51368;SDS011;37459;51.416;5.502;2023-05-06T11:03:51;4.15;;;1.63;;
51368;SDS011;37459;51.416;5.502;2023-05-06T11:06:30;5.15;;;1.70;;
51368;SDS011;37459;51.416;5.502;2023-05-06T11:08:58;3.15;;;1.30;;
51368;SDS011;37459;51.416;5.502;2023-05-06T11:14:27;4.35;;;1.63;;
51368;SDS011;37459;51.416;5.502;2023-05-06T11:16:55;3.63;;;1.52;;
51368;SDS011;37459;51.416;5.502;2023-05-06T11:19:23;3.05;;;1.50;;
51368;SDS011;37459;51.416;5.502;2023-05-06T11:21:51;4.63;;;1.50;;
51368;SDS011;37459;51.416;5.502;2023-05-06T11:24:23;6.05;;;1.92;;
51368;SDS011;37459;51.416;5.502;2023-05-06T11:26:52;6.80;;;1.85;;
51368;SDS011;37459;51.416;5.502;2023-05-06T11:29:19;7.35;;;1.70;;
51368;SDS011;37459;51.416;5.502;2023-05-06T11:31:47;5.38;;;1.48;;
51368;SDS011;37459;51.416;5.502;2023-05-06T18:20:59;6.50;;;2.53;;
51368;SDS011;37459;51.416;5.502;2023-05-06T18:23:26;5.50;;;2.30;;
51368;SDS011;37459;51.416;5.502;2023-05-06T18:25:53;5.68;;;2.20;;
51368;SDS011;37459;51.416;5.502;2023-05-06T18:28:20;4.68;;;2.28;;
51368;SDS011;37459;51.416;5.502;2023-05-06T18:30:46;4.60;;;2.40;;
51368;SDS011;37459;51.416;5.502;2023-05-06T18:33:13;6.35;;;2.42;;
51368;SDS011;37459;51.416;5.502;2023-05-06T18:35:39;5.60;;;2.53;;
51368;SDS011;37459;51.416;5.502;2023-05-06T18:38:07;6.75;;;2.22;;
51368;SDS011;37459;51.416;5.502;2023-05-06T18:40:34;6.38;;;2.40;;
51368;SDS011;37459;51.416;5.502;2023-05-06T18:43:00;5.15;;;2.00;;
51368;SDS011;37459;51.416;5.502;2023-05-06T18:45:27;7.03;;;2.13;;
51368;SDS011;37459;51.416;5.502;2023-05-06T18:47:54;15.93;;;3.33;;
51368;SDS011;37459;51.416;5.502;2023-05-06T18:50:20;15.82;;;2.67;;
51368;SDS011;37459;51.416;5.502;2023-05-06T18:52:47;14.75;;;2.60;;
51368;SDS011;37459;51.416;5.502;2023-05-06T18:55:15;18.13;;;2.80;;
51368;SDS011;37459;51.416;5.502;2023-05-06T18:57:42;12.93;;;2.85;;
51368;SDS011;37459;51.416;5.502;2023-05-06T19:00:08;11.80;;;2.80;;
51368;SDS011;37459;51.416;5.502;2023-05-06T19:02:37;12.65;;;2.42;;
51368;SDS011;37459;51.416;5.502;2023-05-06T19:05:04;12.95;;;2.80;;
51368;SDS011;37459;51.416;5.502;2023-05-06T19:07:31;11.38;;;2.22;;
51368;SDS011;37459;51.416;5.502;2023-05-06T19:09:58;8.82;;;2.30;;
51368;SDS011;37459;51.416;5.502;2023-05-06T19:12:26;7.95;;;2.17;;
51368;SDS011;37459;51.416;5.502;2023-05-06T19:14:52;10.80;;;2.30;;
51368;SDS011;37459;51.416;5.502;2023-05-06T19:17:19;8.70;;;2.33;;
51368;SDS011;37459;51.416;5.502;2023-05-06T19:19:45;9.40;;;2.17;;
51368;SDS011;37459;51.416;5.502;2023-05-06T19:22:13;8.70;;;2.20;;
51368;SDS011;37459;51.416;5.502;2023-05-06T19:24:39;16.15;;;2.42;;
51368;SDS011;37459;51.416;5.502;2023-05-06T19:27:06;8.23;;;2.50;;
51368;SDS011;37459;51.416;5.502;2023-05-06T19:29:34;8.95;;;2.30;;
51368;SDS011;37459;51.416;5.502;2023-05-06T19:32:00;5.25;;;2.03;;
51368;SDS011;37459;51.416;5.502;2023-05-06T19:34:27;5.07;;;1.60;;
51368;SDS011;37459;51.416;5.502;2023-05-06T19:36:54;6.40;;;1.97;;
51368;SDS011;37459;51.416;5.502;2023-05-06T19:39:21;6.13;;;1.67;;
51368;SDS011;37459;51.416;5.502;2023-05-06T19:41:48;5.80;;;1.70;;
51368;SDS011;37459;51.416;5.502;2023-05-06T19:44:15;5.40;;;1.77;;
51368;SDS011;37459;51.416;5.502;2023-05-06T19:46:43;7.30;;;1.70;;
51368;SDS011;37459;51.416;5.502;2023-05-06T19:49:09;5.13;;;1.80;;
51368;SDS011;37459;51.416;5.502;2023-05-06T19:51:36;5.80;;;1.80;;
51368;SDS011;37459;51.416;5.502;2023-05-06T19:54:02;5.05;;;1.80;;
51368;SDS011;37459;51.416;5.502;2023-05-06T19:56:29;4.75;;;1.70;;
51368;SDS011;37459;51.416;5.502;2023-05-06T19:58:56;4.82;;;1.52;;
51368;SDS011;37459;51.416;5.502;2023-05-06T20:01:22;4.28;;;1.50;;
51368;SDS011;37459;51.416;5.502;2023-05-06T20:03:52;4.15;;;1.48;;
51368;SDS011;37459;51.416;5.502;2023-05-06T20:06:19;3.65;;;1.48;;
51368;SDS011;37459;51.416;5.502;2023-05-06T20:08:45;3.92;;;1.48;;
51368;SDS011;37459;51.416;5.502;2023-05-06T20:11:12;4.88;;;1.50;;
51368;SDS011;37459;51.416;5.502;2023-05-06T20:13:38;3.57;;;1.30;;
51368;SDS011;37459;51.416;5.502;2023-05-06T20:16:05;4.55;;;1.55;;
51368;SDS011;37459;51.416;5.502;2023-05-06T20:18:31;2.95;;;1.30;;
51368;SDS011;37459;51.416;5.502;2023-05-06T20:20:59;3.15;;;1.30;;
51368;SDS011;37459;51.416;5.502;2023-05-06T20:23:26;3.30;;;1.30;;
51368;SDS011;37459;51.416;5.502;2023-05-06T20:25:52;2.88;;;1.27;;
51368;SDS011;37459;51.416;5.502;2023-05-06T20:28:19;2.58;;;1.20;;
51368;SDS011;37459;51.416;5.502;2023-05-06T20:30:46;3.20;;;1.30;;
51368;SDS011;37459;51.416;5.502;2023-05-06T20:33:13;3.03;;;1.20;;
51368;SDS011;37459;51.416;5.502;2023-05-06T20:35:39;3.88;;;1.20;;
51368;SDS011;37459;51.416;5.502;2023-05-06T20:38:08;2.75;;;1.30;;
51368;SDS011;37459;51.416;5.502;2023-05-06T20:40:34;4.68;;;1.17;;
51368;SDS011;37459;51.416;5.502;2023-05-06T20:43:01;2.72;;;1.15;;
51368;SDS011;37459;51.416;5.502;2023-05-06T20:45:28;2.50;;;1.13;;
51368;SDS011;37459;51.416;5.502;2023-05-06T20:47:55;2.83;;;1.08;;
51368;SDS011;37459;51.416;5.502;2023-05-06T20:50:21;2.90;;;1.13;;
51368;SDS011;37459;51.416;5.502;2023-05-06T20:52:48;2.22;;;0.80;;
51368;SDS011;37459;51.416;5.502;2023-05-06T20:55:18;3.70;;;1.23;;
51368;SDS011;37459;51.416;5.502;2023-05-06T20:57:47;2.03;;;0.90;;
51368;SDS011;37459;51.416;5.502;2023-05-06T21:00:14;2.53;;;0.90;;
51368;SDS011;37459;51.416;5.502;2023-05-06T21:02:40;3.35;;;1.20;;
51368;SDS011;37459;51.416;5.502;2023-05-06T21:05:07;2.60;;;1.10;;
51368;SDS011;37459;51.416;5.502;2023-05-06T21:07:34;2.67;;;0.90;;
51368;SDS011;37459;51.416;5.502;2023-05-06T21:10:01;1.58;;;0.80;;
51368;SDS011;37459;51.416;5.502;2023-05-06T21:12:31;2.15;;;0.90;;
51368;SDS011;37459;51.416;5.502;2023-05-06T21:14:57;2.23;;;0.87;;
51368;SDS011;37459;51.416;5.502;2023-05-06T21:17:24;2.45;;;0.70;;
51368;SDS011;37459;51.416;5.502;2023-05-06T21:19:51;2.23;;;0.90;;
51368;SDS011;37459;51.416;5.502;2023-05-06T21:22:18;2.40;;;0.90;;
51368;SDS011;37459;51.416;5.502;2023-05-06T21:24:44;1.73;;;0.80;;
51368;SDS011;37459;51.416;5.502;2023-05-06T21:27:11;3.67;;;1.00;;
51368;SDS011;37459;51.416;5.502;2023-05-06T21:29:39;2.70;;;0.90;;
51368;SDS011;37459;51.416;5.502;2023-05-06T21:32:05;2.80;;;1.00;;
